Aeroporto :
LOGIN :

Iscrizione | Disclaimer

   EN    FR    IT 

 










Sommario :    VFR   VFR Marginale   IFR   IFR Intensivo   IFR Molto Intensivo
Visibilità : 
Base nubi : 
>= 8 km
>= 3000ft
5 / 8 km
1000 / 3000 ft
1500m / 5 km
500 / 1000 ft
800 / 1500m
200 / 500 ft
< 800m
< 200 ft
Simboli :   Temporali  Nebbia  Neve Forte  Precipitazioni Forti  Vento > 20 kt
SIGMETs :   Varie  Temporali  Ghiacco  Turbolenza  Onda orograficha  Ceneri Vulcaniche






- Altitudine del aeroporto : 443 ft
- Codice IATA : GNA


UMMG - Grodno

ULTIMO METAR :
  • 291300Z 02010G13MPS 9999 BKN036 17/04 Q1019 NOSIG

METARs OBSOLETI :
  • 291200Z 01010G13MPS 9999 BKN033 17/05 Q1019 NOSIG

TAF TAF UMMG
Valido dal 29 a 12 ore il 29 a 21 ore UTC


291108Z 2912/2921 36009G14MPS 9999 BKN025
TEMPO 2912/2918 02011G16MPS -SHRA SCT020CB
TEMPO 2918/2921 35010G15MPS 6000 -SHRA BKN011CB



MetMap, La meteo Aeronautica in un colpo d'occhio ! - Copyright ORBIFLY Dicembre 2007 - Disclaimer

ORBIFLY MET'MAP TEAM :

Programmazione e sviluppo : Alexandra Zaïnal
Concezione : Baudouin d'Aumeries
Aiuto per la programmazione : Marc-Olivier Méhu
Supporto tecnico e logistico : Manuel Goepfert
Aiuto per la traduzione : Arnaldo La Scala

Contatto : metmap@orbifly.com




FONTI E CREDITI :

   NOAA